KACY/ACY METAR and TAF weather

Enter ICAO airport designator
Station Type Date Time Source
KACY METAR 2018/07/19 06:54 UTC NOAA

KACY 190654Z 34004KT 10SM SCT070 19/15 A3002 RMK AO2 SLP165 T01890150


Station Type Date Time Source
KACY Decoded METAR 2018/07/19 06:54 UTC NOAA

ATLANTIC CITY INTERNATIONAL, NJ, United States (KACY) 39-28N 74-35W 35M
Jul 19, 2018 - 02:54 AM EDT / 2018.07.19 0654 UTC
Wind: from the NNW (340 degrees) at 5 MPH (4 KT):0
Visibility: 10 mile(s):0
Sky conditions: partly cloudy
Temperature: 66.0 F (18.9 C)
Dew Point: 59.0 F (15.0 C)
Relative Humidity: 78%
Pressure (altimeter): 30.02 in. Hg (1016 hPa)
ob: KACY 190654Z 34004KT 10SM SCT070 19/15 A3002 RMK AO2 SLP165 T01890150
cycle: 7

Station Type Date Time Source
KACY TAF 2018/07/19 06:24 UTC NOAA

TAF KACY 190521Z 1906/2006 01006KT P6SM SKC
FM191400 05006KT P6SM FEW050
FM191700 12008KT P6SM FEW050
FM192200 15004KT P6SM SKC
FM200100 VRB03KT P6SM SCT250


Example: see airport list